全部
Kuressaare Airport (Kuressaare, Saaremaa) URE 天气
|
Kuressaare, Saaremaa (URE / EEKE)
晴天
静风 |
|
9 °C |
URE终端机场天气预报
| Date | Time (EEST) | Flight Rules | Wind Dir. | Speed | Type | Height AGL (ft) | Visibility | Remarks | ||||||
|---|---|---|---|---|---|---|---|---|---|---|---|---|---|---|
URE近期METAR历史数据
| Date | Time (EEST) | Flight Rules | Wind Dir. | Speed | Type | Height AGL (ft) | Visibility | Temp (°C) | Temp (°F) | Dew Point (°C) | Dew Point (°F) | Rel. Humid. | Pressure | Density Altitude | Remarks |
|---|---|---|---|---|---|---|---|---|---|---|---|---|---|---|---|
| 03-五月 | 00:50 | VFR | 230° | 3 kt | 10000 meters | 9° | 48° | 6° | 42° | 81% | 1011 mb | -641 ft | |||
| 03-五月 | 00:20 | VFR | 230° | 4 kt | 10000 meters | 9° | 48° | 5° | 41° | 76% | 1011 mb | -641 ft | |||
| 02-五月 | 23:50 | VFR | 230° | 7 kt | 10000 meters | 10° | 50° | 5° | 41° | 71% | 1011 mb | -521 ft | |||
| 02-五月 | 23:20 | VFR | 240° | 8 kt | 10000 meters | 10° | 50° | 5° | 41° | 71% | 1011 mb | -521 ft | |||
| 02-五月 | 22:50 | VFR | 210° | 5 kt | 10000 meters | 8° | 46° | 5° | 41° | 81% | 1012 mb | -790 ft | |||
| 02-五月 | 22:20 | VFR | 180° | 4 kt | 10000 meters | 8° | 46° | 5° | 41° | 81% | 1012 mb | -790 ft | |||
| 02-五月 | 21:50 | VFR | 150° | 3 kt | 10000 meters | 8° | 46° | 5° | 41° | 81% | 1012 mb | -790 ft | |||
| 02-五月 | 21:20 | VFR | 220° | 7 kt | 10000 meters | 11° | 51° | 6° | 42° | 71% | 1012 mb | -430 ft | |||
| 02-五月 | 20:50 | VFR | 240° | 9 kt | 10000 meters | 12° | 53° | 5° | 41° | 62% | 1012 mb | -310 ft | |||
| 02-五月 | 20:20 | VFR | 240° | 9 kt | 10000 meters | 12° | 53° | 5° | 41° | 62% | 1012 mb | -310 ft | |||
| 02-五月 | 19:50 | VFR | 240° | 10 kt | 10000 meters | 13° | 55° | 5° | 41° | 58% | 1013 mb | -220 ft | |||
| 02-五月 | 19:20 | VFR | 250° | 10 kt | 10000 meters | 13° | 55° | 5° | 41° | 58% | 1013 mb | -220 ft | |||
| 02-五月 | 18:50 | VFR | 240° | 10 kt | 10000 meters | 13° | 55° | 5° | 41° | 58% | 1014 mb | -249 ft | Wind gusting to 20 KT | ||
| 02-五月 | 18:20 | VFR | 240° | 11 kt | 10000 meters | 13° | 55° | 5° | 41° | 58% | 1014 mb | -249 ft | |||
| 02-五月 | 17:50 | VFR | 230° | 10 kt | 10000 meters | 13° | 55° | 6° | 42° | 62% | 1014 mb | -249 ft | |||
| 02-五月 | 17:20 | VFR | 240° | 10 kt | 10000 meters | 14° | 57° | 6° | 42° | 58% | 1015 mb | -159 ft | |||
| 02-五月 | 16:50 | VFR | 240° | 11 kt | 10000 meters | 14° | 57° | 6° | 42° | 58% | 1015 mb | -159 ft | |||
| 02-五月 | 16:20 | VFR | 240° | 12 kt | 10000 meters | 14° | 57° | 6° | 42° | 58% | 1015 mb | -159 ft | |||
| 02-五月 | 15:50 | VFR | 230° | 10 kt | 10000 meters | 13° | 55° | 6° | 42° | 62% | 1015 mb | -279 ft | |||
| 02-五月 | 15:20 | VFR | 220° | 9 kt | 10000 meters | 13° | 55° | 7° | 44° | 67% | 1015 mb | -279 ft | |||
| 02-五月 | 14:50 | VFR | 220° | 10 kt | 10000 meters | 13° | 55° | 6° | 42° | 62% | 1016 mb | -308 ft | |||
| 02-五月 | 14:20 | VFR | 230° | 9 kt | 10000 meters | 13° | 55° | 6° | 42° | 62% | 1016 mb | -308 ft | |||
| 02-五月 | 13:50 | VFR | 230° | 10 kt | 10000 meters | 14° | 57° | 7° | 44° | 63% | 1016 mb | -188 ft | |||
| 02-五月 | 13:20 | VFR | 230° | 8 kt | 10000 meters | 15° | 59° | 6° | 42° | 55% | 1016 mb | -68 ft |
登录
| 您的浏览器不支持. 升级您的浏览器 |
